Mostovskoy, Russia
Current Conditions -  °F | °C
As of 5:30 AM on Tuesday 21 Oct 2014 (Local Time) from URMT Reporting Station
Clear Clear  
Wind Chill: 37°   Ceiling: Unl
Heat Index: 41°   Visibility: 6mi
Dew Point: 37°   Wind: 7mph
Humidity: 87%   Direction: 240°WSW
Pressure: 29.94"   Gusts: NA
Location:  44.41°N, 40.79°E
Report Text: URMT 210230Z 24003MPS CAVOK 05/03 Q1014 NOSIG RMK QFE722 SC070
Loading
Personal Weather Stations






























Interactive Weather Map
Tropical Storm Tracking
New forecast layout! Learn more

10-Day Weather Forecast

Advertisements
Track Severe Weather on mobile